Time;durP1;ratioP1;P1;durP2;ratioP2;P2;SDS_P1;SDS_P2;PMS_P1;PMS_P2;Temp;Humidity;BMP_temperature;BMP_pressure;BME280_temperature;BME280_humidity;BME280_pressure;Samples;Min_cycle;Max_cycle;Signal;HPM_P1;HPM_P2
2023/09/30 00:00:58;;;;;;;;;2.33;2.00;;;;;26.33;40.68;102476.69;5056148;28;45260;-75
2023/09/30 00:03:23;;;;;;;;;1.67;1.00;;;;;26.61;40.50;102499.47;5056010;28;45337;-74
2023/09/30 00:05:49;;;;;;;;;1.33;1.33;;;;;26.35;41.03;102450.66;5055838;28;45289;-75
2023/09/30 00:08:15;;;;;;;;;2.67;2.00;;;;;26.59;40.92;102475.63;5055766;28;45355;-75
2023/09/30 00:10:40;;;;;;;;;3.67;2.33;;;;;26.57;40.48;102466.13;5056011;28;45317;-75
2023/09/30 00:13:08;;;;;;;;;2.00;1.00;;;;;26.47;40.68;102445.78;5055862;28;45296;-75
2023/09/30 00:15:33;;;;;;;;;2.33;2.33;;;;;26.49;40.80;102446.44;5055857;28;45317;-75
2023/09/30 00:17:59;;;;;;;;;5.00;3.00;;;;;26.57;40.85;102482.97;5055832;28;45331;-75
2023/09/30 00:20:24;;;;;;;;;4.33;3.33;;;;;26.53;40.65;102500.34;5055853;28;46131;-75
2023/09/30 00:22:50;;;;;;;;;2.00;2.00;;;;;26.57;40.41;102504.31;5053853;28;45878;-74
2023/09/30 00:25:15;;;;;;;;;2.00;2.00;;;;;26.58;41.04;102499.81;5055695;28;45394;-75
2023/09/30 00:27:40;;;;;;;;;4.67;3.00;;;;;26.46;40.71;102481.50;5055912;28;45355;-74
2023/09/30 00:30:07;;;;;;;;;2.00;1.00;;;;;26.58;41.10;102507.81;5055778;28;45489;-74
2023/09/30 00:32:33;;;;;;;;;2.00;2.00;;;;;26.46;40.65;102494.03;5055477;28;46162;-75
2023/09/30 00:34:59;;;;;;;;;6.00;3.33;;;;;26.48;40.70;102508.84;5055527;28;45312;-75
2023/09/30 00:37:24;;;;;;;;;4.00;2.33;;;;;26.57;41.20;102527.53;5055248;28;45481;-74
2023/09/30 00:39:49;;;;;;;;;2.67;2.00;;;;;26.57;40.98;102527.53;5055795;28;45418;-74
2023/09/30 00:42:15;;;;;;;;;4.00;3.00;;;;;26.57;41.14;102535.53;5055152;28;45683;-75
2023/09/30 00:44:40;;;;;;;;;3.00;3.00;;;;;26.55;40.52;102522.34;5055595;28;45426;-75
2023/09/30 00:47:06;;;;;;;;;2.67;2.67;;;;;26.56;41.13;102523.19;5055642;28;45291;-75
2023/09/30 00:49:32;;;;;;;;;2.67;2.67;;;;;26.47;41.00;102483.16;5055498;28;45438;-74
2023/09/30 00:51:58;;;;;;;;;3.00;3.00;;;;;26.57;40.65;102498.16;5054966;28;46166;-75
2023/09/30 00:54:25;;;;;;;;;2.67;2.67;;;;;26.44;40.58;102477.34;5055357;28;45368;-75
2023/09/30 00:56:55;;;;;;;;;4.00;3.00;;;;;26.55;41.00;102498.31;5055556;28;45333;-75
2023/09/30 00:59:21;;;;;;;;;2.00;2.00;;;;;26.55;40.89;102492.97;5055295;28;45419;-75
2023/09/30 01:01:46;;;;;;;;;3.33;2.00;;;;;26.39;40.44;102469.81;5054962;28;45324;-75
2023/09/30 01:04:12;;;;;;;;;5.00;3.00;;;;;26.48;40.37;102498.19;5055116;28;45253;-75
2023/09/30 01:06:38;;;;;;;;;5.00;3.67;;;;;26.51;40.46;102505.84;5055025;28;45360;-75
2023/09/30 01:09:04;;;;;;;;;2.67;2.00;;;;;26.53;40.97;102519.00;5057294;28;45358;-75
2023/09/30 01:11:29;;;;;;;;;5.00;2.67;;;;;26.51;40.58;102505.84;5058486;28;46228;-75
2023/09/30 01:13:55;;;;;;;;;3.67;3.00;;;;;26.50;40.73;102506.84;5058687;28;45457;-75
2023/09/30 01:16:21;;;;;;;;;3.33;2.00;;;;;26.38;41.06;102501.00;5058810;28;45406;-75
2023/09/30 01:18:46;;;;;;;;;2.67;2.67;;;;;26.52;41.04;102533.34;5058754;28;45406;-75
2023/09/30 01:21:12;;;;;;;;;3.00;2.33;;;;;26.43;40.88;102508.50;5058159;28;45430;-74
2023/09/30 01:23:38;;;;;;;;;3.33;1.67;;;;;26.52;41.23;102507.50;5058411;28;45418;-75
2023/09/30 01:26:14;;;;;;;;;2.00;2.00;;;;;26.47;40.97;102501.84;5058804;28;45350;-75
2023/09/30 01:28:40;;;;;;;;;3.33;3.33;;;;;26.41;41.37;102499.84;5058529;28;45545;-75
2023/09/30 01:31:06;;;;;;;;;1.00;1.00;;;;;26.37;41.04;102494.00;5058048;28;47207;-75
2023/09/30 01:33:32;;;;;;;;;3.33;2.00;;;;;26.25;40.82;102471.34;5057881;28;45936;-74
2023/09/30 01:36:02;;;;;;;;;2.67;2.00;;;;;26.43;40.81;102492.50;5058489;28;45415;-75
2023/09/30 01:38:27;;;;;;;;;3.00;1.67;;;;;26.50;41.16;102506.84;5058440;28;45481;-75
2023/09/30 01:40:54;;;;;;;;;1.33;1.33;;;;;26.48;41.24;102513.34;5058041;28;46077;-74
2023/09/30 01:43:19;;;;;;;;;1.00;1.00;;;;;26.48;41.21;102521.38;5058313;28;45368;-75
2023/09/30 01:45:44;;;;;;;;;2.67;2.00;;;;;26.25;41.03;102479.34;5058233;28;45454;-74
2023/09/30 01:48:11;;;;;;;;;1.00;1.00;;;;;26.39;40.71;102501.81;5057805;28;45437;-76
2023/09/30 01:50:37;;;;;;;;;3.00;3.00;;;;;26.50;40.74;102512.19;5058054;28;46987;-75
2023/09/30 01:53:04;;;;;;;;;3.33;2.00;;;;;26.44;40.68;102510.19;5058013;28;45482;-75
2023/09/30 01:55:29;;;;;;;;;2.00;2.00;;;;;26.47;41.39;102525.84;5058134;28;45402;-75
2023/09/30 01:57:54;;;;;;;;;1.00;1.00;;;;;26.49;40.59;102529.19;5058016;28;45394;-75
2023/09/30 02:00:20;;;;;;;;;2.33;2.33;;;;;26.40;41.14;102516.84;5057746;28;46360;-74
2023/09/30 02:02:45;;;;;;;;;3.33;2.00;;;;;26.36;40.68;102507.53;5057686;28;45416;-75
2023/09/30 02:05:11;;;;;;;;;2.67;0.00;;;;;26.41;41.01;102522.00;5057911;28;45408;-74
2023/09/30 02:07:36;;;;;;;;;2.00;2.00;;;;;26.49;40.87;102523.03;5056550;28;45409;-75
2023/09/30 02:10:02;;;;;;;;;4.67;3.00;;;;;26.44;40.85;102515.53;5057941;28;45399;-75
2023/09/30 02:12:30;;;;;;;;;5.00;2.00;;;;;26.38;40.53;102506.34;5056460;28;45696;-75
2023/09/30 02:14:56;;;;;;;;;5.00;3.00;;;;;26.43;41.15;102513.00;5057916;28;45342;-75
2023/09/30 02:17:22;;;;;;;;;3.00;2.00;;;;;26.43;40.64;102503.16;5057338;28;45484;-75
2023/09/30 02:19:54;;;;;;;;;3.67;2.00;;;;;26.46;40.97;102518.88;5056635;28;46138;-75
2023/09/30 02:22:20;;;;;;;;;4.67;3.00;;;;;26.48;40.81;102521.38;5056191;28;45323;-75
2023/09/30 02:24:45;;;;;;;;;3.00;3.00;;;;;26.46;40.98;102524.22;5057629;27;45563;-74
2023/09/30 02:27:10;;;;;;;;;2.33;2.00;;;;;26.36;40.75;102505.66;5057641;28;45558;-75
2023/09/30 02:29:36;;;;;;;;;2.67;2.00;;;;;26.47;40.86;102525.84;5057220;28;53058;-75
2023/09/30 02:32:01;;;;;;;;;2.33;1.67;;;;;26.38;40.94;102511.69;5057350;28;45332;-74
2023/09/30 02:34:26;;;;;;;;;4.33;2.67;;;;;26.48;40.70;102532.88;5057636;28;45320;-74
2023/09/30 02:36:55;;;;;;;;;3.33;2.00;;;;;26.34;41.14;102515.69;5057138;28;45260;-74
2023/09/30 02:39:20;;;;;;;;;4.00;4.00;;;;;26.26;40.66;102497.00;5057307;28;46282;-75
2023/09/30 02:41:46;;;;;;;;;2.00;2.00;;;;;26.47;41.04;102539.19;5057014;28;45342;-74
2023/09/30 02:44:12;;;;;;;;;4.00;2.67;;;;;26.48;40.74;102534.72;5057437;28;45329;-75
2023/09/30 02:46:38;;;;;;;;;3.00;2.00;;;;;26.43;40.71;102524.50;5057259;28;45395;-75
2023/09/30 02:49:03;;;;;;;;;2.00;2.00;;;;;26.46;41.35;102518.88;5056729;28;46837;-74
2023/09/30 02:51:29;;;;;;;;;3.00;3.00;;;;;26.46;41.13;102524.22;5057111;28;45271;-74
2023/09/30 02:53:55;;;;;;;;;2.67;2.00;;;;;26.40;41.22;102511.50;5057396;28;45332;-74
2023/09/30 02:56:20;;;;;;;;;1.33;1.33;;;;;26.46;40.62;102521.53;5057078;28;45292;-74
2023/09/30 02:58:46;;;;;;;;;3.00;2.33;;;;;26.43;40.80;102508.50;5057065;28;45303;-75
2023/09/30 03:01:16;;;;;;;;;2.00;2.00;;;;;26.46;40.60;102513.53;5056972;28;45348;-74
2023/09/30 03:03:44;;;;;;;;;5.00;2.00;;;;;26.23;41.17;102473.34;5056716;28;45454;-74
2023/09/30 03:06:10;;;;;;;;;3.00;1.67;;;;;26.39;40.90;102500.00;5056809;28;45328;-75
2023/09/30 03:08:36;;;;;;;;;2.00;2.00;;;;;26.45;40.84;102503.84;5056709;28;47256;-74
2023/09/30 03:11:02;;;;;;;;;2.00;2.00;;;;;26.35;40.64;102490.66;5056796;28;45315;-74
2023/09/30 03:13:27;;;;;;;;;3.67;3.67;;;;;26.33;40.69;102490.00;5056903;28;45435;-74
2023/09/30 03:15:52;;;;;;;;;2.67;2.00;;;;;26.32;40.88;102480.34;5056887;28;45442;-75
2023/09/30 03:18:22;;;;;;;;;6.33;3.67;;;;;26.36;40.63;102480.84;5056338;28;45482;-75
2023/09/30 03:20:50;;;;;;;;;2.33;2.00;;;;;26.14;40.42;102444.03;5056586;28;45345;-76
2023/09/30 03:23:15;;;;;;;;;3.67;2.00;;;;;26.45;41.04;102481.66;5056784;28;45225;-75
2023/09/30 03:25:42;;;;;;;;;3.00;2.00;;;;;26.37;41.03;102464.66;5056599;28;45553;-75
2023/09/30 03:28:07;;;;;;;;;2.00;2.00;;;;;26.43;40.99;102463.13;5056544;28;47501;-75
2023/09/30 03:30:33;;;;;;;;;4.00;3.00;;;;;26.37;41.21;102467.31;5056343;28;45498;-75
2023/09/30 03:32:58;;;;;;;;;1.00;1.00;;;;;26.43;41.08;102491.66;5054854;28;45386;-75
2023/09/30 03:35:24;;;;;;;;;5.67;3.00;;;;;26.43;40.86;102489.81;5056556;28;45436;-76
2023/09/30 03:37:50;;;;;;;;;2.00;1.00;;;;;26.34;40.96;102480.16;5056474;28;46349;-74
2023/09/30 03:40:19;;;;;;;;;3.33;2.00;;;;;26.32;40.67;102485.66;5056248;28;45461;-75
2023/09/30 03:42:45;;;;;;;;;4.00;2.00;;;;;26.43;41.17;102497.00;5056223;28;45312;-74
2023/09/30 03:45:13;;;;;;;;;4.00;3.00;;;;;26.43;40.78;102497.00;5056535;28;45311;-75
2023/09/30 03:47:40;;;;;;;;;1.67;1.67;;;;;26.34;40.75;102480.16;5055900;28;46175;-74
2023/09/30 03:50:12;;;;;;;;;1.67;1.67;;;;;26.39;40.82;102492.00;5056196;28;45301;-75
2023/09/30 03:52:38;;;;;;;;;3.67;2.33;;;;;26.40;40.92;102487.50;5056295;28;45412;-74
2023/09/30 03:55:04;;;;;;;;;3.67;2.00;;;;;26.43;40.69;102484.50;5056264;28;45321;-75
2023/09/30 03:57:32;;;;;;;;;2.00;2.00;;;;;26.29;41.06;102472.66;5055926;28;46517;-74
2023/09/30 03:59:57;;;;;;;;;4.00;2.00;;;;;26.43;40.79;102494.31;5056088;28;45442;-74
2023/09/30 04:02:22;;;;;;;;;2.33;2.00;;;;;26.38;40.99;102482.34;5055582;28;45390;-74
2023/09/30 04:04:50;;;;;;;;;2.00;2.00;;;;;26.36;40.89;102475.50;5056027;28;45414;-74
2023/09/30 04:07:16;;;;;;;;;3.00;1.00;;;;;26.42;40.81;102485.47;5056078;28;45404;-75
2023/09/30 04:09:42;;;;;;;;;3.00;3.00;;;;;26.43;40.91;102483.66;5055830;28;45450;-75
2023/09/30 04:12:07;;;;;;;;;3.00;3.00;;;;;26.34;41.13;102474.81;5055903;28;45321;-75
2023/09/30 04:14:33;;;;;;;;;1.67;1.67;;;;;26.41;41.11;102495.31;5056076;28;45436;-74
2023/09/30 04:16:58;;;;;;;;;2.67;2.67;;;;;26.40;41.19;102493.66;5055464;28;47133;-75
2023/09/30 04:19:23;;;;;;;;;3.00;1.33;;;;;26.27;41.29;102480.84;5056017;28;45419;-74
2023/09/30 04:21:49;;;;;;;;;1.00;1.00;;;;;26.35;41.03;102479.16;5055807;28;45359;-75
2023/09/30 04:24:14;;;;;;;;;2.00;2.00;;;;;26.34;41.24;102486.31;5055809;28;45401;-75
2023/09/30 04:26:40;;;;;;;;;2.00;1.67;;;;;26.41;40.74;102499.84;5055619;28;50883;-75
2023/09/30 04:29:06;;;;;;;;;3.67;2.00;;;;;26.39;40.67;102500.00;5055638;28;45362;-75
2023/09/30 04:31:31;;;;;;;;;3.33;3.00;;;;;26.36;40.86;102499.50;5055068;28;45462;-74
2023/09/30 04:33:57;;;;;;;;;4.00;2.67;;;;;26.40;41.18;102503.50;5071057;28;54453;-75
2023/09/30 04:36:23;;;;;;;;;3.67;2.00;;;;;26.39;40.72;102501.81;5055382;28;46417;-75
2023/09/30 04:38:48;;;;;;;;;5.00;2.00;;;;;26.27;40.97;102472.00;5055421;28;45257;-75
2023/09/30 04:41:15;;;;;;;;;2.00;2.00;;;;;26.29;41.17;102476.16;5055704;28;45277;-75
2023/09/30 04:43:41;;;;;;;;;2.67;2.33;;;;;26.36;40.89;102494.19;5056992;28;45307;-74
2023/09/30 04:46:07;;;;;;;;;1.67;1.67;;;;;26.39;41.02;102510.66;5058789;28;45545;-75
2023/09/30 04:48:33;;;;;;;;;1.00;1.00;;;;;26.25;40.98;102490.03;5059080;28;45474;-75
2023/09/30 04:50:59;;;;;;;;;6.67;2.67;;;;;26.25;41.42;102485.53;5059112;28;45419;-75
2023/09/30 04:53:24;;;;;;;;;4.00;2.00;;;;;26.36;40.96;102494.19;5059126;28;45367;-75
2023/09/30 04:55:50;;;;;;;;;4.00;2.00;;;;;26.37;40.95;102499.34;5059002;28;46013;-74
2023/09/30 04:58:16;;;;;;;;;2.00;2.00;;;;;26.35;41.22;102506.69;5058929;28;45519;-76
2023/09/30 05:00:41;;;;;;;;;1.00;1.00;;;;;26.40;41.21;102506.16;5058675;28;45360;-75
2023/09/30 05:03:07;;;;;;;;;1.00;1.00;;;;;26.34;41.28;102483.66;5057646;28;45543;-75
2023/09/30 05:05:32;;;;;;;;;1.00;1.00;;;;;26.35;41.34;102471.16;5058623;28;45907;-75
2023/09/30 05:07:58;;;;;;;;;2.00;2.00;;;;;26.30;41.04;102453.00;5058881;28;45550;-74
2023/09/30 05:10:25;;;;;;;;;3.67;3.67;;;;;26.29;40.94;102459.31;5058917;28;45236;-75
2023/09/30 05:12:53;;;;;;;;;2.00;2.00;;;;;26.35;40.71;102465.81;5058783;28;45311;-75
2023/09/30 05:15:20;;;;;;;;;3.00;2.33;;;;;26.36;40.83;102470.97;5058160;28;46978;-74
2023/09/30 05:17:47;;;;;;;;;2.00;2.00;;;;;26.33;40.73;102483.84;5058553;28;45309;-75
2023/09/30 05:20:13;;;;;;;;;1.67;1.67;;;;;26.32;40.99;102484.84;5058673;28;45421;-75
2023/09/30 05:22:44;;;;;;;;;2.00;2.00;;;;;26.31;41.09;102483.19;5058689;28;45351;-74
2023/09/30 05:25:10;;;;;;;;;0.67;0.67;;;;;26.33;41.20;102475.84;5058302;28;47231;-74
2023/09/30 05:27:37;;;;;;;;;4.33;4.00;;;;;26.33;40.96;102479.34;5058395;28;45343;-75
2023/09/30 05:30:04;;;;;;;;;3.00;2.00;;;;;26.29;40.64;102457.50;5058329;28;45447;-75
2023/09/30 05:32:30;;;;;;;;;2.00;2.00;;;;;26.33;40.83;102455.34;5058418;28;45660;-74
2023/09/30 05:34:56;;;;;;;;;3.00;3.00;;;;;26.37;40.88;102458.47;5058241;28;46334;-75
2023/09/30 05:37:21;;;;;;;;;2.00;2.00;;;;;26.26;41.09;102457.81;5058279;28;45360;-74
2023/09/30 05:39:48;;;;;;;;;3.00;2.00;;;;;26.26;40.68;102476.50;5058525;28;45498;-75
2023/09/30 05:42:15;;;;;;;;;3.00;2.00;;;;;26.36;41.14;102486.19;5058052;28;45415;-74
2023/09/30 05:44:41;;;;;;;;;5.00;2.67;;;;;26.34;41.30;102480.16;5057884;28;45502;-75
2023/09/30 05:47:08;;;;;;;;;4.00;1.67;;;;;26.33;40.71;102475.84;5056948;28;45368;-75
2023/09/30 05:49:33;;;;;;;;;1.67;1.00;;;;;26.36;41.26;102470.16;5058107;28;45390;-75
2023/09/30 05:51:59;;;;;;;;;2.67;2.00;;;;;26.28;41.08;102455.00;5058133;28;45325;-74
2023/09/30 05:54:24;;;;;;;;;2.00;2.00;;;;;26.35;40.93;102471.16;5057061;28;46859;-75
2023/09/30 05:56:50;;;;;;;;;3.00;2.00;;;;;26.25;41.08;102460.69;5057597;28;45317;-74
2023/09/30 05:59:15;;;;;;;;;4.00;2.00;;;;;26.34;40.69;102478.31;5057786;28;45595;-75
2023/09/30 06:01:42;;;;;;;;;1.00;1.00;;;;;26.22;41.15;102459.19;5057917;28;45331;-75
2023/09/30 06:04:07;;;;;;;;;2.00;2.00;;;;;26.35;40.93;102469.31;5057752;28;45347;-75
2023/09/30 06:06:33;;;;;;;;;2.00;2.00;;;;;26.31;41.37;102465.31;5057699;28;45320;-75
2023/09/30 06:08:58;;;;;;;;;4.67;3.00;;;;;26.31;40.75;102464.50;5058085;28;45288;-75
2023/09/30 06:11:24;;;;;;;;;2.33;1.33;;;;;26.24;40.69;102457.16;5057862;28;45466;-75
2023/09/30 06:13:54;;;;;;;;;2.00;1.00;;;;;26.34;40.91;102475.66;5057258;28;46242;-75
2023/09/30 06:16:20;;;;;;;;;4.33;2.33;;;;;26.38;41.32;102492.16;5057781;28;45282;-75
2023/09/30 06:18:46;;;;;;;;;2.00;2.00;;;;;26.27;41.04;102475.50;5057771;28;45221;-76
2023/09/30 06:21:14;;;;;;;;;3.00;1.00;;;;;26.30;41.08;102482.34;5057574;28;45456;-75
2023/09/30 06:23:40;;;;;;;;;3.00;1.33;;;;;26.35;40.69;102495.16;5057563;28;47373;-76
2023/09/30 06:26:05;;;;;;;;;2.33;1.67;;;;;26.32;41.28;102495.50;5057458;28;45453;-75
2023/09/30 06:28:32;;;;;;;;;2.00;2.00;;;;;26.39;40.72;102499.16;5057370;28;45326;-75
2023/09/30 06:30:58;;;;;;;;;1.00;1.00;;;;;26.39;40.69;102499.16;5057505;28;45317;-75
2023/09/30 06:33:23;;;;;;;;;2.33;2.33;;;;;26.29;41.25;102489.50;5057216;28;47124;-75
2023/09/30 06:35:52;;;;;;;;;3.33;1.67;;;;;26.28;40.76;102487.84;5057510;28;45300;-75
2023/09/30 06:38:20;;;;;;;;;2.00;1.33;;;;;26.28;40.89;102477.16;5057534;28;45304;-76
2023/09/30 06:40:48;;;;;;;;;1.67;1.67;;;;;26.37;40.56;102496.66;5057227;28;45526;-75
2023/09/30 06:43:17;;;;;;;;;4.00;3.00;;;;;26.39;41.08;102505.34;5055280;28;48482;-74
2023/09/30 06:45:44;;;;;;;;;2.67;2.00;;;;;26.39;41.11;102513.34;5057268;28;45542;-74
2023/09/30 06:48:13;;;;;;;;;3.00;2.00;;;;;26.40;40.97;102514.19;5057338;28;45376;-75
2023/09/30 06:50:44;;;;;;;;;2.00;2.00;;;;;26.39;40.92;102510.66;5057335;28;45250;-74
2023/09/30 06:53:10;;;;;;;;;2.00;2.00;;;;;26.37;41.16;102502.00;5057040;28;46293;-75
2023/09/30 06:55:40;;;;;;;;;3.00;3.00;;;;;26.36;40.69;102499.50;5056745;28;45418;-75
2023/09/30 06:58:07;;;;;;;;;3.00;2.00;;;;;26.41;40.73;102510.50;5057220;28;45234;-76
2023/09/30 07:00:34;;;;;;;;;2.00;2.00;;;;;26.40;40.59;102514.19;5057065;28;45578;-75
2023/09/30 07:02:59;;;;;;;;;2.00;2.00;;;;;26.39;40.71;102525.84;5056743;28;46150;-75
2023/09/30 07:05:25;;;;;;;;;1.00;1.00;;;;;26.35;41.19;102517.34;5056415;28;45432;-74
2023/09/30 07:07:51;;;;;;;;;3.00;1.00;;;;;26.36;40.61;102512.84;5056856;28;45388;-74
2023/09/30 07:10:16;;;;;;;;;2.00;0.00;;;;;26.33;40.71;102508.69;5055346;28;45449;-75
2023/09/30 07:12:42;;;;;;;;;1.33;1.33;;;;;26.40;40.51;102524.84;5056663;28;45994;-74
2023/09/30 07:15:08;;;;;;;;;2.00;1.67;;;;;26.33;40.94;102514.03;5056828;28;45479;-75
2023/09/30 07:17:33;;;;;;;;;3.67;2.00;;;;;26.39;40.54;102529.34;5056840;28;45817;-74
2023/09/30 07:19:59;;;;;;;;;5.33;3.00;;;;;26.25;40.30;102509.53;5056846;28;45303;-75
2023/09/30 07:22:24;;;;;;;;;2.33;2.33;;;;;26.17;40.42;102490.88;5056442;28;46492;-76
2023/09/30 07:24:50;;;;;;;;;4.33;4.00;;;;;26.38;39.31;102522.34;5056261;28;45263;-78
2023/09/30 07:27:16;;;;;;;;;5.33;4.00;;;;;26.28;39.78;102522.50;5056423;28;45345;-79
2023/09/30 07:29:41;;;;;;;;;5.00;3.00;;;;;26.27;40.16;102525.38;5056644;28;45384;-77
2023/09/30 07:32:07;;;;;;;;;4.33;4.33;;;;;26.20;39.74;102521.72;5053726;28;47108;-76
2023/09/30 07:34:33;;;;;;;;;5.33;5.00;;;;;26.23;39.62;102514.19;5046846;28;45284;-76
2023/09/30 07:36:58;;;;;;;;;5.00;3.00;;;;;26.28;40.37;102530.53;5046288;28;45490;-76
2023/09/30 07:39:23;;;;;;;;;3.00;2.00;;;;;26.30;40.20;102538.38;5045425;28;45428;-76
2023/09/30 07:41:49;;;;;;;;;3.33;2.00;;;;;26.32;40.36;102541.69;5044543;28;47124;-76
2023/09/30 07:44:15;;;;;;;;;3.67;2.67;;;;;26.22;40.73;102523.22;5046293;28;45404;-76
2023/09/30 07:46:40;;;;;;;;;3.67;3.67;;;;;26.29;39.99;102537.53;5048496;28;45465;-73
2023/09/30 07:49:07;;;;;;;;;3.33;3.00;;;;;26.41;40.54;102553.22;5046441;28;45384;-82
2023/09/30 07:51:32;;;;;;;;;4.67;2.67;;;;;26.37;40.54;102530.50;5045781;28;46986;-77
2023/09/30 07:53:58;;;;;;;;;4.67;3.00;;;;;26.42;40.62;102530.84;5048423;28;45541;-77
2023/09/30 07:56:23;;;;;;;;;3.00;3.00;;;;;26.55;40.05;102541.03;5054148;28;45460;-77
2023/09/30 07:58:49;;;;;;;;;3.33;3.00;;;;;26.58;40.53;102538.03;5049440;28;46868;-76
2023/09/30 08:01:17;;;;;;;;;2.00;2.00;;;;;26.68;40.03;102539.66;5043165;28;45884;-76
2023/09/30 08:03:43;;;;;;;;;3.00;3.00;;;;;26.66;40.16;102531.00;5044294;28;45520;-75
2023/09/30 08:06:08;;;;;;;;;4.00;4.00;;;;;26.81;39.48;102547.13;5045665;28;45429;-74
2023/09/30 08:08:35;;;;;;;;;4.00;3.00;;;;;26.85;40.05;102543.13;5035314;28;45489;-75
2023/09/30 08:11:00;;;;;;;;;3.33;2.33;;;;;26.84;39.79;102539.63;5035480;28;45937;-75
2023/09/30 08:13:25;;;;;;;;;2.33;2.33;;;;;26.83;39.41;102537.94;5035720;28;45459;-76
2023/09/30 08:15:53;;;;;;;;;2.67;2.67;;;;;26.88;39.70;102553.44;5035863;28;45656;-75
2023/09/30 08:18:19;;;;;;;;;3.00;3.00;;;;;26.98;39.85;102573.78;5034756;28;45566;-75
2023/09/30 08:20:45;;;;;;;;;4.00;4.00;;;;;26.76;39.15;102539.63;5035095;28;58631;-75
2023/09/30 08:23:11;;;;;;;;;5.67;3.67;;;;;26.95;38.88;102556.28;5035312;28;45369;-74
2023/09/30 08:25:37;;;;;;;;;3.00;3.00;;;;;27.08;38.62;102566.41;5035595;28;45332;-74
2023/09/30 08:28:03;;;;;;;;;4.33;4.33;;;;;27.12;39.03;102567.72;5035590;28;45258;-76
2023/09/30 08:30:29;;;;;;;;;3.00;3.00;;;;;27.15;39.23;102571.91;5040394;28;45605;-75
2023/09/30 08:32:54;;;;;;;;;4.67;4.67;;;;;27.18;38.60;102587.59;5040322;28;45420;-73
2023/09/30 08:35:19;;;;;;;;;2.33;2.33;;;;;27.20;38.81;102596.28;5035446;28;45420;-79
2023/09/30 08:37:45;;;;;;;;;5.67;4.00;;;;;27.17;39.35;102588.59;5046024;28;45884;-74
2023/09/30 08:40:11;;;;;;;;;6.33;3.00;;;;;27.18;38.81;102587.59;5045458;28;46929;-74
2023/09/30 08:42:38;;;;;;;;;6.00;4.00;;;;;27.25;39.25;102590.41;5044132;28;45432;-73
2023/09/30 08:45:06;;;;;;;;;4.00;2.33;;;;;27.25;38.99;102590.41;5037976;28;45422;-75
2023/09/30 08:47:34;;;;;;;;;3.00;3.00;;;;;27.20;38.81;102572.22;5048789;28;45502;-74
2023/09/30 08:50:05;;;;;;;;;5.67;3.00;;;;;27.31;39.39;102580.84;5055004;28;45909;-74
2023/09/30 08:52:32;;;;;;;;;4.00;4.00;;;;;27.28;38.67;102568.69;5054901;28;45378;-74
2023/09/30 08:54:58;;;;;;;;;4.00;4.00;;;;;27.27;38.81;102549.13;5054189;28;45345;-74
2023/09/30 08:57:24;;;;;;;;;4.00;3.00;;;;;27.36;39.21;102557.97;5055249;28;45301;-74
2023/09/30 08:59:52;;;;;;;;;3.33;3.00;;;;;27.27;39.34;102545.66;5055343;28;46055;-74
2023/09/30 09:02:18;;;;;;;;;3.67;3.67;;;;;27.44;39.46;102573.13;5055047;28;45495;-75
2023/09/30 09:04:46;;;;;;;;;4.00;4.00;;;;;27.47;39.35;102575.44;5055106;28;45438;-74
2023/09/30 09:07:11;;;;;;;;;3.00;3.00;;;;;27.48;39.52;102574.41;5055116;28;45150;-74
2023/09/30 09:09:36;;;;;;;;;4.67;2.33;;;;;27.46;38.61;102581.78;5054867;28;46143;-73
2023/09/30 09:12:02;;;;;;;;;4.67;2.33;;;;;27.46;38.99;102584.47;5054924;28;45233;-74
2023/09/30 09:14:42;;;;;;;;;7.00;4.00;;;;;27.52;38.72;102586.44;5055058;28;45416;-74
2023/09/30 09:17:10;;;;;;;;;4.00;2.33;;;;;27.50;38.65;102571.59;5054972;28;45402;-74
2023/09/30 09:19:36;;;;;;;;;5.67;3.67;;;;;27.55;38.68;102579.91;5054788;28;46709;-74
2023/09/30 09:22:04;;;;;;;;;4.00;4.00;;;;;27.55;38.77;102577.25;5054242;28;45345;-75
2023/09/30 09:24:42;;;;;;;;;3.00;3.00;;;;;27.56;39.33;102573.53;5054943;28;45389;-74
2023/09/30 09:27:07;;;;;;;;;4.67;3.33;;;;;27.57;38.46;102579.72;5054825;28;45539;-74
2023/09/30 09:29:33;;;;;;;;;2.33;2.33;;;;;27.46;38.96;102565.75;5055994;28;45438;-74
2023/09/30 09:32:13;;;;;;;;;2.33;2.33;;;;;27.58;38.61;102584.91;5058297;28;45308;-74
2023/09/30 09:34:40;;;;;;;;;5.67;3.67;;;;;27.57;38.66;102575.22;5058461;28;45402;-74
2023/09/30 09:37:27;;;;;;;;;5.33;3.67;;;;;27.59;38.67;102575.03;5057767;28;45511;-74
2023/09/30 09:39:55;;;;;;;;;3.67;2.33;;;;;27.59;39.42;102567.00;5057988;28;47201;-74
2023/09/30 09:42:32;;;;;;;;;4.67;3.00;;;;;27.58;38.81;102566.19;5057713;28;45447;-74
2023/09/30 09:44:59;;;;;;;;;4.67;2.67;;;;;27.60;39.34;102563.34;5058229;28;45308;-74
2023/09/30 09:47:25;;;;;;;;;3.00;3.00;;;;;27.56;38.86;102556.69;5058113;28;45565;-74
2023/09/30 09:49:52;;;;;;;;;4.33;4.00;;;;;27.66;38.99;102569.81;5057585;28;46228;-74
2023/09/30 09:52:19;;;;;;;;;2.00;2.00;;;;;27.65;39.18;102568.16;5057972;28;45446;-75
2023/09/30 09:54:46;;;;;;;;;3.33;3.33;;;;;27.66;39.09;102568.00;5058163;28;45343;-74
2023/09/30 09:57:12;;;;;;;;;2.00;2.00;;;;;27.58;38.90;102560.84;5058139;28;45416;-74
2023/09/30 09:59:39;;;;;;;;;4.33;3.00;;;;;27.68;38.67;102575.81;5057846;28;46765;-74
2023/09/30 10:02:11;;;;;;;;;3.00;3.00;;;;;27.51;39.11;102542.00;5057803;28;45397;-74
2023/09/30 10:04:37;;;;;;;;;4.67;4.00;;;;;27.68;39.49;102554.44;5057507;28;45684;-73
2023/09/30 10:07:05;;;;;;;;;5.00;4.00;;;;;27.62;39.20;102543.44;5057842;28;45400;-74
2023/09/30 10:09:35;;;;;;;;;3.33;1.33;;;;;27.63;39.39;102538.94;5057620;28;46088;-73
2023/09/30 10:12:01;;;;;;;;;3.33;2.00;;;;;27.66;39.11;102540.41;5057843;28;45357;-74
2023/09/30 10:14:32;;;;;;;;;4.00;4.00;;;;;27.66;39.12;102543.09;5057725;28;45329;-74
2023/09/30 10:16:58;;;;;;;;;2.00;2.00;;;;;27.61;39.26;102527.59;5057751;28;45370;-75
2023/09/30 10:19:23;;;;;;;;;2.00;2.00;;;;;27.60;39.09;102533.94;5057124;28;46607;-75
2023/09/30 10:22:21;;;;;;;;;5.00;3.00;;;;;27.69;39.55;102546.22;5057541;28;45341;-75
2023/09/30 10:24:48;;;;;;;;;5.67;2.00;;;;;27.66;38.98;102541.25;5057813;28;45304;-76
2023/09/30 10:27:31;;;;;;;;;3.33;2.00;;;;;27.69;39.33;102537.38;5057460;28;45378;-76
2023/09/30 10:30:15;;;;;;;;;4.00;3.67;;;;;27.68;39.86;102535.72;5057356;28;46223;-75
2023/09/30 10:32:53;;;;;;;;;3.33;3.33;;;;;27.67;39.41;102537.56;5057163;28;45344;-75
2023/09/30 10:35:27;;;;;;;;;4.00;4.00;;;;;27.67;39.72;102534.88;5057230;28;45632;-75
2023/09/30 10:38:24;;;;;;;;;3.33;3.33;;;;;27.66;39.27;102519.84;5057292;28;45235;-75
2023/09/30 10:40:51;;;;;;;;;3.50;3.50;;;;;27.62;39.16;102513.19;5056047;28;45777;-74
2023/09/30 10:43:30;;;;;;;;;3.00;3.00;;;;;27.63;39.63;102515.69;5056996;28;45395;-75
2023/09/30 10:45:56;;;;;;;;;4.33;1.33;;;;;27.65;39.46;102520.84;5057300;28;45265;-74
2023/09/30 10:48:24;;;;;;;;;4.00;2.00;;;;;27.66;39.16;102519.03;5057120;28;45269;-74
2023/09/30 10:50:51;;;;;;;;;5.00;3.00;;;;;27.66;39.96;102525.22;5055680;28;47154;-75
2023/09/30 10:53:17;;;;;;;;;2.67;2.67;;;;;27.58;39.54;102503.88;5057240;28;45438;-75
2023/09/30 10:55:45;;;;;;;;;2.00;2.00;;;;;27.58;39.02;102503.88;5057194;28;45552;-75
2023/09/30 10:58:11;;;;;;;;;4.00;4.00;;;;;27.62;39.78;102513.19;5057025;28;45324;-75
2023/09/30 11:00:38;;;;;;;;;5.00;3.00;;;;;27.64;39.92;102516.50;5056975;28;45319;-75
2023/09/30 11:03:05;;;;;;;;;3.67;3.00;;;;;27.62;39.55;102508.69;5056369;28;45510;-75
2023/09/30 11:05:32;;;;;;;;;4.00;3.00;;;;;27.62;39.52;102506.00;5056829;28;45448;-75
2023/09/30 11:08:03;;;;;;;;;4.33;2.67;;;;;27.52;39.92;102494.72;5056951;28;45359;-75
2023/09/30 11:10:28;;;;;;;;;1.00;1.00;;;;;27.49;39.44;102495.06;5056826;28;45343;-75
2023/09/30 11:12:57;;;;;;;;;2.00;2.00;;;;;27.60;39.67;102504.53;5056819;28;45367;-75
2023/09/30 11:15:24;;;;;;;;;4.00;3.33;;;;;27.51;39.85;102483.19;5056889;28;45463;-75
2023/09/30 11:17:52;;;;;;;;;4.33;3.00;;;;;27.52;39.90;102482.19;5056451;28;45550;-75
2023/09/30 11:20:18;;;;;;;;;3.00;3.00;;;;;27.56;39.86;102484.50;5056427;28;46174;-76
2023/09/30 11:22:45;;;;;;;;;2.00;2.00;;;;;27.47;39.81;102463.19;5056458;28;45331;-75